Terminal Aerodrome Forecast
Issued by NWS Cleveland, OH

Home | Current Version | Previous Version | Graphics & Text | Print | Product List | Glossary On
Versions: 1 2 3 4 5 6 7 8 9 10 11 12 13 14 15 16 17 18 19
000
FTUS41 KCLE 271904 AAB
TAFTOL
TAF AMD
KTOL 271904Z 2719/2818 30008KT 4SM -SHRA BKN035 BKN080
      TEMPO 2719/2720 2SM -TSRA BKN020CB OVC045
     FM272100 17005KT P6SM BKN050 BKN100
     FM280700 23003KT 4SM BR VCSH BKN015
     FM281300 27008KT P6SM BKN025=

USA.gov is the U.S. government's official web portal to all federal, state and local government web resources and services.